Time;durP1;ratioP1;P1;durP2;ratioP2;P2;SDS_P1;SDS_P2;PMS_P1;PMS_P2;Temp;Humidity;BMP_temperature;BMP_pressure;BME280_temperature;BME280_humidity;BME280_pressure;Samples;Min_cycle;Max_cycle;Signal;HPM_P1;HPM_P2
2023/03/25 00:00:23;;;;;;;19.00;9.57;;;;;;;9.17;100.00;92841.31;5083668;28;20043;-73
2023/03/25 00:02:52;;;;;;;19.90;10.18;;;;;;;9.06;100.00;92827.38;5091143;28;20040;-73
2023/03/25 00:05:21;;;;;;;22.10;11.65;;;;;;;9.13;100.00;92840.16;5089019;28;20372;-73
2023/03/25 00:07:50;;;;;;;21.92;13.07;;;;;;;9.08;100.00;92839.00;5091154;28;20063;-73
2023/03/25 00:10:17;;;;;;;20.38;11.45;;;;;;;9.07;100.00;92839.19;5088888;28;20056;-73
2023/03/25 00:12:45;;;;;;;17.00;11.52;;;;;;;9.06;100.00;92840.19;5083455;28;20048;-73
2023/03/25 00:15:15;;;;;;;18.45;10.30;;;;;;;8.98;100.00;92825.84;5091100;28;20101;-73
2023/03/25 00:17:42;;;;;;;24.42;11.43;;;;;;;8.78;100.00;92797.84;5091202;28;20044;-73
2023/03/25 00:20:11;;;;;;;21.35;11.50;;;;;;;8.85;100.00;92800.34;5090742;28;20419;-73
2023/03/25 00:22:39;;;;;;;21.65;11.98;;;;;;;8.81;100.00;92807.69;5090539;28;20051;-73
2023/03/25 00:25:08;;;;;;;21.13;12.40;;;;;;;8.90;100.00;92823.56;5091205;28;20044;-73
2023/03/25 00:27:35;;;;;;;21.90;11.40;;;;;;;8.88;100.00;92817.88;5087923;28;20515;-73
2023/03/25 00:30:04;;;;;;;20.73;11.27;;;;;;;8.88;100.00;92818.66;5090592;28;20044;-73
2023/03/25 00:32:31;;;;;;;19.65;12.05;;;;;;;8.84;100.00;92824.41;5091022;28;20044;-73
2023/03/25 00:34:58;;;;;;;18.85;10.82;;;;;;;8.79;100.00;92823.25;5090720;28;20340;-72
2023/03/25 00:37:26;;;;;;;21.52;11.73;;;;;;;8.70;100.00;92816.78;5090770;28;20131;-73
2023/03/25 00:39:52;;;;;;;17.52;10.52;;;;;;;8.64;100.00;92818.44;5090783;28;20384;-73
2023/03/25 00:42:24;;;;;;;17.95;10.65;;;;;;;8.58;100.00;92815.91;5090368;28;20549;-73
2023/03/25 00:44:52;;;;;;;15.90;10.77;;;;;;;8.54;100.00;92811.22;5090536;28;20040;-73
2023/03/25 00:47:20;;;;;;;17.90;11.25;;;;;;;8.48;100.00;92803.53;5090756;28;20048;-73
2023/03/25 00:49:48;;;;;;;19.08;11.32;;;;;;;8.49;100.00;92811.00;5090765;28;20481;-73
2023/03/25 00:52:15;;;;;;;22.70;11.70;;;;;;;8.52;100.00;92808.06;5089856;28;20051;-73
2023/03/25 00:54:42;;;;;;;18.23;11.15;;;;;;;8.39;100.00;92787.63;5072803;28;20044;-73
2023/03/25 00:57:17;;;;;;;21.23;13.05;;;;;;;8.48;100.00;92809.41;5078582;28;20051;-73
2023/03/25 00:59:45;;;;;;;17.73;11.23;;;;;;;8.24;100.00;92773.34;5076559;28;20035;-73
2023/03/25 01:02:12;;;;;;;15.43;10.30;;;;;;;8.42;100.00;92803.38;5089060;28;20044;-73
2023/03/25 01:04:41;;;;;;;17.73;10.32;;;;;;;8.37;100.00;92794.72;5070754;28;20048;-73
2023/03/25 01:07:07;;;;;;;15.77;10.23;;;;;;;8.40;100.00;92791.75;5070565;28;20045;-73
2023/03/25 01:09:35;;;;;;;15.63;10.38;;;;;;;8.42;100.00;92797.44;5070295;28;20049;-73
2023/03/25 01:12:01;;;;;;;16.25;10.50;;;;;;;8.39;100.00;92788.41;5069798;28;20098;-73
2023/03/25 01:14:28;;;;;;;11.80;9.02;;;;;;;8.40;100.00;92786.66;5069667;28;20052;-73
2023/03/25 01:16:55;;;;;;;15.50;9.35;;;;;;;8.40;100.00;92784.09;5069326;28;20045;-73
2023/03/25 01:19:22;;;;;;;13.00;9.25;;;;;;;8.42;100.00;92784.66;5079195;28;20103;-73
2023/03/25 01:21:51;;;;;;;14.18;10.25;;;;;;;8.39;100.00;92780.72;5069455;28;20048;-72
2023/03/25 01:24:18;;;;;;;15.85;10.95;;;;;;;8.40;100.00;92771.28;5069463;28;20044;-72
2023/03/25 01:26:46;;;;;;;16.50;10.48;;;;;;;8.39;100.00;92774.84;5069559;28;20090;-72
2023/03/25 01:29:14;;;;;;;16.27;10.30;;;;;;;8.38;100.00;92771.50;5076717;28;20101;-72
2023/03/25 01:31:41;;;;;;;13.13;9.45;;;;;;;8.38;100.00;92765.59;5075246;28;20102;-72
2023/03/25 01:34:07;;;;;;;13.07;9.07;;;;;;;8.37;100.00;92764.81;5069423;28;20579;-72
2023/03/25 01:36:36;;;;;;;17.02;9.60;;;;;;;8.40;100.00;92756.72;5069324;28;20098;-73
2023/03/25 01:39:05;;;;;;;11.93;8.63;;;;;;;8.40;100.00;92753.38;5068945;28;20489;-72
2023/03/25 01:41:34;;;;;;;11.88;8.63;;;;;;;8.39;100.00;92755.13;5069137;28;20051;-73
2023/03/25 01:44:06;;;;;;;11.77;8.35;;;;;;;8.40;100.00;92748.25;5069481;28;20093;-73
2023/03/25 01:46:33;;;;;;;14.45;8.20;;;;;;;8.34;100.00;92743.97;5068942;28;20059;-73
2023/03/25 01:49:02;;;;;;;11.38;8.57;;;;;;;8.42;100.00;92753.94;5069054;28;20096;-72
2023/03/25 01:51:32;;;;;;;12.60;8.73;;;;;;;8.40;100.00;92759.28;5069158;28;20063;-72
2023/03/25 01:53:58;;;;;;;14.38;8.90;;;;;;;8.31;100.00;92741.81;5069498;28;20040;-73
2023/03/25 01:56:31;;;;;;;14.82;9.88;;;;;;;8.27;100.00;92736.31;5069431;28;20044;-73
2023/03/25 01:58:59;;;;;;;12.52;9.13;;;;;;;8.37;100.00;92746.09;5068624;28;20402;-73
2023/03/25 02:01:26;;;;;;;15.20;9.13;;;;;;;8.34;100.00;92749.09;5069164;28;20055;-74
2023/03/25 02:04:01;;;;;;;14.75;9.60;;;;;;;8.33;100.00;92750.84;5069326;28;20133;-73
2023/03/25 02:06:33;;;;;;;16.27;10.38;;;;;;;8.32;100.00;92751.84;5069175;28;20040;-73
2023/03/25 02:09:05;;;;;;;18.08;10.80;;;;;;;8.27;100.00;92749.13;5068140;28;20036;-72
2023/03/25 02:11:33;;;;;;;15.32;9.85;;;;;;;8.28;100.00;92753.25;5069134;28;20508;-72
2023/03/25 02:14:04;;;;;;;13.50;9.40;;;;;;;8.21;100.00;92740.50;5069181;28;20471;-73
2023/03/25 02:16:41;;;;;;;13.82;9.02;;;;;;;8.29;100.00;92747.16;5068808;28;20538;-73
2023/03/25 02:19:41;;;;;;;12.02;8.85;;;;;;;8.25;100.00;92749.31;5068966;28;20044;-73
2023/03/25 02:22:36;;;;;;;13.32;8.20;;;;;;;8.22;100.00;92746.38;5065546;28;20546;-72
2023/03/25 02:25:19;;;;;;;11.63;7.65;;;;;;;8.17;100.00;92744.47;5059537;28;20044;-73
2023/03/25 02:28:01;;;;;;;10.63;8.07;;;;;;;8.15;100.00;92749.00;5068550;28;20048;-73
2023/03/25 02:30:51;;;;;;;13.68;8.80;;;;;;;8.14;100.00;92737.19;5082302;28;20045;-73
2023/03/25 02:34:00;;;;;;;11.88;8.77;;;;;;;8.12;100.00;92747.66;5068770;28;20401;-72
2023/03/25 02:37:11;;;;;;;16.33;10.85;;;;;;;8.07;100.00;92739.78;5068855;28;20089;-72
2023/03/25 02:39:42;;;;;;;13.93;9.75;;;;;;;8.08;100.00;92738.81;5068494;28;20048;-71
2023/03/25 02:42:17;;;;;;;36.70;18.73;;;;;;;7.91;100.00;92730.81;5068876;28;20495;-71
2023/03/25 02:44:52;;;;;;;30.50;17.98;;;;;;;7.60;100.00;92728.00;5068881;28;20447;-72
2023/03/25 02:47:23;;;;;;;41.33;20.33;;;;;;;7.22;100.00;92738.94;5068742;28;20045;-72
2023/03/25 02:49:54;;;;;;;41.63;20.85;;;;;;;7.05;100.00;92744.47;5068505;28;20040;-72
2023/03/25 02:52:25;;;;;;;45.97;22.92;;;;;;;6.67;100.00;92745.88;5068850;28;20045;-72
2023/03/25 02:54:56;;;;;;;37.85;22.20;;;;;;;6.43;100.00;92742.13;5068905;28;20041;-72
2023/03/25 02:57:28;;;;;;;42.45;24.77;;;;;;;6.35;100.00;92737.25;5068527;28;20121;-71
2023/03/25 02:59:57;;;;;;;39.53;22.55;;;;;;;6.36;100.00;92733.72;5068387;28;20090;-71
2023/03/25 03:02:31;;;;;;;43.33;25.48;;;;;;;6.06;100.00;92699.13;5068698;28;20048;-71
2023/03/25 03:04:57;;;;;;;46.67;23.40;;;;;;;6.01;100.00;92734.59;5068368;28;20044;-72
2023/03/25 03:07:27;;;;;;;45.10;22.67;;;;;;;5.73;100.00;92728.66;5068780;28;20049;-72
2023/03/25 03:10:06;;;;;;;42.65;23.17;;;;;;;5.74;100.00;92721.81;5068098;28;20044;-72
2023/03/25 03:12:53;;;;;;;39.08;21.98;;;;;;;5.85;100.00;92728.91;5068547;28;20456;-72
2023/03/25 03:15:30;;;;;;;41.25;23.50;;;;;;;5.88;100.00;92723.41;5068436;28;20044;-74
2023/03/25 03:18:15;;;;;;;39.90;22.77;;;;;;;5.78;100.00;92724.75;5068106;28;20044;-73
2023/03/25 03:20:50;;;;;;;40.03;23.40;;;;;;;5.64;100.00;92740.00;5084737;28;20048;-73
2023/03/25 03:23:25;;;;;;;38.72;22.90;;;;;;;5.54;100.00;92730.16;5071735;28;20040;-73
2023/03/25 03:26:03;;;;;;;41.00;22.53;;;;;;;5.56;100.00;92723.09;5071940;28;20045;-73
2023/03/25 03:28:36;;;;;;;45.40;23.80;;;;;;;5.61;100.00;92736.06;5073008;28;20382;-72
2023/03/25 03:31:08;;;;;;;48.90;24.98;;;;;;;5.57;100.00;92734.09;5083081;28;20052;-73
2023/03/25 03:33:40;;;;;;;43.38;23.30;;;;;;;5.48;100.00;92733.47;5072209;28;20143;-72
2023/03/25 03:36:12;;;;;;;40.85;24.02;;;;;;;5.43;100.00;92738.34;5080196;28;20056;-72
2023/03/25 03:38:43;;;;;;;42.88;23.55;;;;;;;5.31;100.00;92735.53;5071600;28;20083;-72
2023/03/25 03:41:15;;;;;;;40.88;23.23;;;;;;;5.37;100.00;92734.78;5071446;28;20052;-72
2023/03/25 03:43:48;;;;;;;36.60;22.67;;;;;;;5.37;100.00;92727.13;5071474;28;20489;-73
2023/03/25 03:46:18;;;;;;;42.15;23.92;;;;;;;5.19;100.00;92732.75;5071354;28;20052;-73
2023/03/25 03:48:49;;;;;;;41.03;24.13;;;;;;;5.13;100.00;92733.50;5071457;28;20492;-72
2023/03/25 03:51:21;;;;;;;43.92;23.52;;;;;;;5.13;100.00;92749.56;5071363;28;20049;-72
2023/03/25 03:53:52;;;;;;;44.72;25.48;;;;;;;4.83;100.00;92709.06;5071408;28;20095;-72
2023/03/25 03:56:25;;;;;;;47.95;24.27;;;;;;;4.78;100.00;92729.94;5071459;28;20048;-72
2023/03/25 03:58:58;;;;;;;46.97;25.58;;;;;;;4.61;100.00;92703.22;5071499;28;20094;-73
2023/03/25 04:01:33;;;;;;;47.63;25.80;;;;;;;4.89;100.00;92730.41;5071198;28;20457;-71
2023/03/25 04:04:03;;;;;;;39.42;24.35;;;;;;;5.00;100.00;92749.50;5071592;28;20048;-71
2023/03/25 04:06:37;;;;;;;59.20;40.80;;;;;;;4.97;100.00;92744.75;5070860;28;20044;-71
2023/03/25 04:09:10;;;;;;;65.32;36.55;;;;;;;4.95;100.00;92750.81;5071305;28;20052;-73
2023/03/25 04:11:43;;;;;;;44.80;26.65;;;;;;;4.91;100.00;92747.06;5083149;28;20048;-72
2023/03/25 04:14:11;;;;;;;42.03;26.67;;;;;;;5.00;100.00;92741.84;5070970;28;20044;-73
2023/03/25 04:16:37;;;;;;;39.75;23.77;;;;;;;4.90;100.00;92745.50;5070655;28;20547;-71
2023/03/25 04:19:05;;;;;;;38.70;24.23;;;;;;;4.95;100.00;92748.28;5071069;28;20044;-73
2023/03/25 04:21:32;;;;;;;40.53;24.42;;;;;;;4.97;100.00;92748.09;5070947;28;20045;-73
2023/03/25 04:24:00;;;;;;;46.38;26.00;;;;;;;5.04;100.00;92748.91;5071264;28;20392;-71
2023/03/25 04:26:32;;;;;;;44.35;26.92;;;;;;;5.08;100.00;92754.41;5070899;28;20041;-71
2023/03/25 04:29:00;;;;;;;39.63;25.77;;;;;;;4.89;100.00;92731.22;5075664;28;20135;-71
2023/03/25 04:31:30;;;;;;;40.92;24.63;;;;;;;5.14;100.00;92755.44;5079035;28;20129;-71
2023/03/25 04:33:56;;;;;;;42.45;26.25;;;;;;;5.13;100.00;92769.16;5070702;28;20084;-71
2023/03/25 04:36:23;;;;;;;41.85;25.10;;;;;;;5.11;100.00;92758.34;5070755;28;20360;-72
2023/03/25 04:38:51;;;;;;;42.03;25.80;;;;;;;5.12;100.00;92759.91;5087983;28;20127;-72
2023/03/25 04:41:18;;;;;;;47.75;27.48;;;;;;;5.19;100.00;92753.13;5090795;28;20139;-72
2023/03/25 04:43:45;;;;;;;44.20;25.23;;;;;;;5.32;100.00;92753.19;5090445;28;20491;-72
2023/03/25 04:46:15;;;;;;;43.33;26.85;;;;;;;5.36;100.00;92753.59;5081762;28;20044;-72
2023/03/25 04:48:43;;;;;;;45.35;25.05;;;;;;;5.29;100.00;92747.69;5086553;28;20101;-71
2023/03/25 04:51:11;;;;;;;42.20;25.40;;;;;;;5.37;100.00;92751.84;5081894;28;20052;-72
2023/03/25 04:53:38;;;;;;;45.25;25.90;;;;;;;5.40;100.00;92748.91;5085959;28;20101;-72
2023/03/25 04:56:11;;;;;;;47.50;23.83;;;;;;;5.42;100.00;92749.50;5085022;28;20041;-72
2023/03/25 04:58:39;;;;;;;44.47;25.67;;;;;;;5.56;100.00;92755.44;5072280;28;20070;-72
2023/03/25 05:01:10;;;;;;;50.03;26.70;;;;;;;5.58;100.00;92751.75;5081967;28;20045;-72
2023/03/25 05:03:38;;;;;;;43.17;24.98;;;;;;;5.65;100.00;92759.38;5076882;28;20044;-72
2023/03/25 05:06:07;;;;;;;44.55;24.50;;;;;;;5.69;100.00;92742.75;5081704;28;20056;-72
2023/03/25 05:08:34;;;;;;;45.03;25.88;;;;;;;5.78;100.00;92756.09;5085494;28;20491;-72
2023/03/25 05:11:01;;;;;;;44.13;22.83;;;;;;;5.87;100.00;92765.16;5082847;28;20451;-72
2023/03/25 05:13:28;;;;;;;43.55;23.08;;;;;;;5.91;100.00;92762.22;5084314;28;20051;-72
2023/03/25 05:15:55;;;;;;;48.13;22.13;;;;;;;5.96;100.00;92749.69;5083418;28;20052;-72
2023/03/25 05:18:22;;;;;;;49.65;23.48;;;;;;;6.08;100.00;92753.28;5083563;28;20085;-72
2023/03/25 05:20:50;;;;;;;52.45;28.25;;;;;;;6.19;100.00;92748.59;5083818;28;20045;-71
2023/03/25 05:23:17;;;;;;;57.72;31.70;;;;;;;6.25;100.00;92743.50;5083001;28;20040;-72
2023/03/25 05:25:44;;;;;;;56.85;31.02;;;;;;;6.24;100.00;92743.69;5090126;28;20411;-71
2023/03/25 05:28:12;;;;;;;54.08;29.08;;;;;;;6.39;100.00;92748.63;5089210;28;20109;-72
2023/03/25 05:30:44;;;;;;;67.03;31.92;;;;;;;6.45;100.00;92741.94;5082660;28;20127;-72
2023/03/25 05:33:12;;;;;;;58.42;29.25;;;;;;;6.55;100.00;92739.81;5089027;28;20043;-72
2023/03/25 05:35:39;;;;;;;55.72;28.05;;;;;;;6.73;100.00;92743.53;5083292;28;20041;-72
2023/03/25 05:38:08;;;;;;;49.03;24.35;;;;;;;6.85;100.00;92757.25;5080805;28;20512;-72
2023/03/25 05:40:36;;;;;;;50.63;23.55;;;;;;;6.86;100.00;92740.97;5089723;28;20051;-71
2023/03/25 05:43:05;;;;;;;44.42;21.25;;;;;;;7.14;100.00;92757.03;5089352;28;20659;-72
2023/03/25 05:45:34;;;;;;;38.17;20.95;;;;;;;6.91;100.00;92759.00;5087342;28;20504;-71
2023/03/25 05:48:01;;;;;;;42.55;21.77;;;;;;;6.60;100.00;92757.88;5078420;28;20075;-71
2023/03/25 05:50:28;;;;;;;40.10;24.17;;;;;;;6.68;100.00;92765.31;5089218;28;20044;-71
2023/03/25 05:52:56;;;;;;;40.60;21.33;;;;;;;6.61;100.00;92743.34;5076831;28;20044;-71
2023/03/25 05:55:24;;;;;;;45.17;22.02;;;;;;;6.49;100.00;92758.44;5079708;28;20500;-72
2023/03/25 05:57:51;;;;;;;49.45;23.25;;;;;;;6.67;100.00;92760.44;5089105;28;20097;-71
2023/03/25 06:00:20;;;;;;;45.78;24.65;;;;;;;6.72;100.00;92757.28;5088910;28;20044;-71
2023/03/25 06:02:49;;;;;;;43.67;21.65;;;;;;;6.77;100.00;92749.81;5083838;28;20131;-72
2023/03/25 06:05:17;;;;;;;43.65;23.40;;;;;;;7.12;100.00;92754.69;5073485;28;20084;-72
2023/03/25 06:07:46;;;;;;;44.60;22.23;;;;;;;7.43;100.00;92763.47;5074934;28;20048;-72
2023/03/25 06:10:15;;;;;;;45.03;21.85;;;;;;;7.60;100.00;92735.66;5083511;28;20048;-72
2023/03/25 06:12:44;;;;;;;52.28;23.90;;;;;;;7.73;100.00;92752.72;5088784;28;20118;-72
2023/03/25 06:15:12;;;;;;;69.07;25.52;;;;;;;7.48;100.00;92724.53;5088600;28;20059;-71
2023/03/25 06:17:39;;;;;;;45.10;21.70;;;;;;;7.67;100.00;92729.75;5069287;28;20045;-72
2023/03/25 06:20:15;;;;;;;47.95;20.95;;;;;;;7.95;100.00;92761.88;5068585;28;20044;-72
2023/03/25 06:22:44;;;;;;;57.53;20.70;;;;;;;7.98;100.00;92761.47;5074559;28;20040;-72
2023/03/25 06:25:11;;;;;;;77.68;25.20;;;;;;;8.10;100.00;92761.63;5089339;28;20102;-72
2023/03/25 06:27:39;;;;;;;80.05;26.17;;;;;;;8.23;100.00;92755.63;5088737;28;20036;-72
2023/03/25 06:30:09;;;;;;;65.82;24.08;;;;;;;8.43;100.00;92760.66;5085630;28;20040;-72
2023/03/25 06:32:36;;;;;;;61.92;22.50;;;;;;;8.62;100.00;92761.53;5088917;28;20056;-72
2023/03/25 06:35:05;;;;;;;59.60;23.02;;;;;;;8.79;100.00;92763.53;5089014;28;20123;-72
2023/03/25 06:37:32;;;;;;;59.55;22.63;;;;;;;9.06;100.00;92756.44;5089012;28;20105;-72
2023/03/25 06:39:58;;;;;;;54.15;22.95;;;;;;;9.21;100.00;92765.56;5088789;28;20488;-72
2023/03/25 06:42:25;;;;;;;59.58;24.02;;;;;;;9.33;100.00;92763.09;5088791;28;20105;-72
2023/03/25 06:44:52;;;;;;;56.72;23.05;;;;;;;9.59;100.00;92762.00;5088960;28;20101;-72
2023/03/25 06:47:20;;;;;;;53.05;21.10;;;;;;;9.73;100.00;92760.09;5088698;28;20048;-72
2023/03/25 06:49:47;;;;;;;47.67;19.98;;;;;;;9.92;100.00;92761.84;5088792;28;20128;-72
2023/03/25 06:52:14;;;;;;;53.30;20.50;;;;;;;10.10;100.00;92759.25;5088767;28;20136;-72
2023/03/25 06:54:41;;;;;;;52.67;22.05;;;;;;;10.39;100.00;92762.03;5090070;28;20227;-72
2023/03/25 06:57:07;;;;;;;61.15;26.02;;;;;;;10.80;100.00;92764.03;5092871;28;20537;-72
2023/03/25 06:59:34;;;;;;;42.97;18.27;;;;;;;10.80;100.00;92766.59;5091928;28;20048;-72
2023/03/25 07:02:01;;;;;;;49.97;21.73;;;;;;;10.89;100.00;92764.50;5092548;28;20454;-72
2023/03/25 07:04:29;;;;;;;53.10;21.88;;;;;;;11.05;100.00;92763.03;5091365;28;20043;-72
2023/03/25 07:06:56;;;;;;;53.53;18.98;;;;;;;10.94;100.00;92765.38;5072970;28;20106;-72
2023/03/25 07:09:28;;;;;;;40.22;17.42;;;;;;;11.19;100.00;92764.38;5072002;28;20086;-73
2023/03/25 07:11:55;;;;;;;51.40;19.85;;;;;;;11.33;100.00;92766.72;5072088;28;20105;-73
2023/03/25 07:14:22;;;;;;;50.42;19.52;;;;;;;11.44;100.00;92763.34;5072128;28;20036;-72
2023/03/25 07:16:49;;;;;;;48.05;17.67;;;;;;;11.70;100.00;92765.66;5071870;28;20413;-72
2023/03/25 07:19:15;;;;;;;44.72;18.00;;;;;;;12.19;100.00;92761.97;5089361;28;20040;-73
2023/03/25 07:21:44;;;;;;;36.35;17.92;;;;;;;12.55;100.00;92755.63;5078390;28;20040;-73
2023/03/25 07:24:10;;;;;;;43.58;16.70;;;;;;;12.80;100.00;92748.53;5092388;28;20428;-72
2023/03/25 07:26:37;;;;;;;35.88;15.95;;;;;;;12.94;100.00;92760.09;5092150;28;20048;-72
2023/03/25 07:29:04;;;;;;;39.20;16.20;;;;;;;12.97;100.00;92758.84;5091790;28;20044;-72
2023/03/25 07:31:31;;;;;;;34.88;15.38;;;;;;;13.06;100.00;92766.97;5086189;28;20071;-72
2023/03/25 07:33:58;;;;;;;42.08;16.40;;;;;;;13.09;100.00;92761.34;5084384;28;20075;-72
2023/03/25 07:36:25;;;;;;;43.05;14.98;;;;;;;12.90;100.00;92753.06;5091831;28;20044;-72
2023/03/25 07:38:53;;;;;;;37.38;14.65;;;;;;;13.55;100.00;92744.94;5091909;28;20055;-72
2023/03/25 07:41:20;;;;;;;33.95;14.80;;;;;;;13.63;99.05;92752.28;5091943;28;20051;-72
2023/03/25 07:43:47;;;;;;;25.55;13.13;;;;;;;13.72;98.07;92756.00;5091638;28;20101;-72
2023/03/25 07:46:14;;;;;;;21.85;12.63;;;;;;;13.82;98.64;92752.75;5091822;28;20471;-72
2023/03/25 07:48:41;;;;;;;27.98;13.90;;;;;;;14.36;99.01;92748.69;5079289;28;20077;-73
2023/03/25 07:51:08;;;;;;;23.15;11.05;;;;;;;14.89;96.69;92749.88;5085145;28;20066;-72
2023/03/25 07:53:37;;;;;;;20.20;10.88;;;;;;;15.35;91.52;92742.44;5090667;28;20051;-72
2023/03/25 07:56:07;;;;;;;24.50;11.75;;;;;;;15.62;86.07;92738.97;5091186;28;20047;-72
2023/03/25 07:58:33;;;;;;;21.58;10.20;;;;;;;15.69;84.73;92738.72;5091442;28;20077;-72
2023/03/25 08:01:00;;;;;;;14.75;8.35;;;;;;;16.15;88.01;92735.53;5091230;28;20443;-73
2023/03/25 08:03:27;;;;;;;13.57;7.63;;;;;;;16.32;76.34;92739.72;5091638;28;20052;-73
2023/03/25 08:05:55;;;;;;;17.75;7.93;;;;;;;16.69;82.13;92732.75;5089946;28;20055;-72
2023/03/25 08:08:22;;;;;;;21.52;8.73;;;;;;;17.02;78.29;92725.47;5091289;28;20044;-72
2023/03/25 08:10:48;;;;;;;17.33;7.72;;;;;;;17.27;73.31;92723.88;5091219;28;20101;-72
2023/03/25 08:13:16;;;;;;;11.45;6.82;;;;;;;17.57;74.30;92714.47;5090671;28;20093;-72
2023/03/25 08:15:43;;;;;;;14.45;6.90;;;;;;;17.67;66.33;92721.44;5091217;28;20089;-72
2023/03/25 08:18:10;;;;;;;11.43;6.82;;;;;;;17.88;68.03;92729.91;5091466;28;20130;-72
2023/03/25 08:20:36;;;;;;;14.65;6.15;;;;;;;18.03;69.26;92731.69;5090708;28;20044;-73
2023/03/25 08:23:09;;;;;;;19.92;7.47;;;;;;;18.11;65.84;92725.19;5091215;28;20044;-72
2023/03/25 08:25:36;;;;;;;19.13;6.80;;;;;;;17.75;61.31;92714.91;5090445;28;20070;-72
2023/03/25 08:28:03;;;;;;;20.60;7.70;;;;;;;17.72;61.39;92720.63;5089352;28;20104;-72
2023/03/25 08:30:36;;;;;;;18.75;7.00;;;;;;;17.82;63.21;92722.44;5084297;28;20051;-72
2023/03/25 08:33:06;;;;;;;16.42;6.32;;;;;;;17.94;61.89;92709.91;5072902;28;20535;-73
2023/03/25 08:35:35;;;;;;;11.57;4.32;;;;;;;17.84;53.13;92702.16;5070603;28;20045;-73
2023/03/25 08:38:05;;;;;;;14.02;4.40;;;;;;;17.74;53.59;92695.19;5070572;28;21077;-72
2023/03/25 08:40:32;;;;;;;10.27;3.70;;;;;;;17.81;50.59;92705.28;5070644;28;20056;-73
2023/03/25 08:42:59;;;;;;;9.52;3.50;;;;;;;17.84;51.22;92691.75;5070287;28;20668;-73
2023/03/25 08:45:28;;;;;;;8.63;3.13;;;;;;;17.68;51.55;92686.63;5069793;28;20555;-73
2023/03/25 08:47:56;;;;;;;6.97;2.70;;;;;;;17.67;48.87;92695.47;5069319;28;20052;-73
2023/03/25 08:50:22;;;;;;;9.32;3.30;;;;;;;18.02;54.44;92682.56;5072644;28;20094;-72
2023/03/25 08:52:52;;;;;;;6.07;2.20;;;;;;;17.76;48.71;92691.28;5070040;28;20105;-73
2023/03/25 08:55:20;;;;;;;5.75;2.70;;;;;;;17.88;49.56;92688.34;5080952;28;20074;-73
2023/03/25 08:57:47;;;;;;;3.60;1.67;;;;;;;17.76;47.52;92699.06;5086786;28;20393;-73
2023/03/25 09:00:16;;;;;;;5.60;3.05;;;;;;;17.66;49.92;92687.94;5089233;28;20044;-73
2023/03/25 09:02:46;;;;;;;6.30;3.20;;;;;;;17.38;48.83;92669.34;5089961;28;20462;-73
2023/03/25 09:05:15;;;;;;;10.27;3.17;;;;;;;17.69;49.38;92682.22;5090985;28;20048;-73
2023/03/25 09:07:42;;;;;;;9.20;4.85;;;;;;;17.98;51.69;92661.56;5090609;28;20571;-73
2023/03/25 09:10:11;;;;;;;10.70;3.00;;;;;;;18.21;46.95;92676.78;5090428;28;20093;-73
2023/03/25 09:12:38;;;;;;;7.55;3.38;;;;;;;18.28;50.06;92677.22;5090002;28;20124;-73
2023/03/25 09:15:06;;;;;;;8.57;3.83;;;;;;;18.11;47.54;92656.81;5090227;28;20040;-73
2023/03/25 09:17:33;;;;;;;7.57;3.28;;;;;;;18.35;48.54;92667.31;5089884;28;20066;-73
2023/03/25 09:20:00;;;;;;;10.45;4.55;;;;;;;18.38;46.53;92666.75;5089944;28;20040;-73
2023/03/25 09:22:28;;;;;;;13.95;4.60;;;;;;;18.25;47.44;92660.38;5090161;28;20094;-73
2023/03/25 09:24:55;;;;;;;26.02;10.50;;;;;;;18.13;46.51;92658.09;5089947;28;20048;-73
2023/03/25 09:27:21;;;;;;;15.40;8.30;;;;;;;18.19;47.50;92651.03;5090020;28;20063;-73
2023/03/25 09:29:48;;;;;;;15.70;5.65;;;;;;;18.48;48.08;92649.53;5090091;28;20113;-73
2023/03/25 09:32:16;;;;;;;10.35;3.55;;;;;;;18.63;48.01;92648.63;5089657;28;20446;-73
2023/03/25 09:34:43;;;;;;;14.45;4.95;;;;;;;18.88;49.45;92646.88;5089631;28;20493;-73
2023/03/25 09:37:10;;;;;;;12.80;4.30;;;;;;;19.08;49.56;92646.66;5089629;28;20488;-73
2023/03/25 09:39:38;;;;;;;8.10;3.58;;;;;;;19.09;45.50;92645.66;5089804;28;20098;-73
2023/03/25 09:42:24;;;;;;;12.13;3.53;;;;;;;18.55;46.46;92644.78;5089270;28;20044;-73
2023/03/25 09:44:57;;;;;;;11.40;3.67;;;;;;;18.73;50.48;92638.16;5089410;28;20044;-73
2023/03/25 09:47:25;;;;;;;16.63;3.78;;;;;;;19.33;47.99;92638.88;5089337;28;20171;-73
2023/03/25 09:49:57;;;;;;;13.07;4.22;;;;;;;19.51;46.38;92642.56;5089775;28;20040;-73
2023/03/25 09:52:28;;;;;;;17.13;4.40;;;;;;;19.63;47.93;92637.72;5089691;28;20048;-73
2023/03/25 09:55:01;;;;;;;7.55;3.05;;;;;;;19.58;49.31;92637.03;5089399;28;20048;-73
2023/03/25 09:57:32;;;;;;;6.60;3.10;;;;;;;20.09;47.62;92637.41;5089271;28;20040;-73
2023/03/25 10:00:05;;;;;;;6.18;2.75;;;;;;;20.29;46.12;92615.47;5088908;28;20040;-73
2023/03/25 10:02:40;;;;;;;12.35;3.97;;;;;;;20.73;49.98;92636.94;5089788;28;20090;-73
2023/03/25 10:05:24;;;;;;;11.35;4.22;;;;;;;20.83;48.26;92623.72;5083142;28;20039;-73
2023/03/25 10:08:06;;;;;;;14.95;4.13;;;;;;;21.14;46.36;92617.19;5089226;28;20494;-73
2023/03/25 10:10:40;;;;;;;8.90;3.65;;;;;;;21.39;46.80;92617.00;5089304;28;20109;-73
2023/03/25 10:13:16;;;;;;;10.10;4.22;;;;;;;21.64;46.66;92623.56;5089218;28;20056;-73
2023/03/25 10:15:53;;;;;;;11.70;3.67;;;;;;;21.53;44.99;92607.31;5089322;28;20040;-74
2023/03/25 10:18:36;;;;;;;7.15;3.42;;;;;;;20.79;42.93;92580.22;5078470;28;20096;-74
2023/03/25 10:21:07;;;;;;;8.50;3.33;;;;;;;20.49;46.08;92603.94;5083974;28;20105;-73
2023/03/25 10:23:38;;;;;;;15.10;4.78;;;;;;;20.66;45.19;92594.78;5088446;28;20048;-73
2023/03/25 10:26:12;;;;;;;8.60;3.20;;;;;;;20.29;46.83;92597.22;5088916;28;20044;-73
2023/03/25 10:28:46;;;;;;;6.00;3.00;;;;;;;20.19;45.66;92597.38;5088640;28;20393;-73
2023/03/25 10:31:16;;;;;;;10.00;3.72;;;;;;;20.61;48.04;92594.88;5094506;28;20139;-73
2023/03/25 10:33:50;;;;;;;7.00;3.30;;;;;;;20.77;46.57;92580.50;5095716;28;20044;-73
2023/03/25 10:36:20;;;;;;;6.43;2.63;;;;;;;21.27;44.64;92593.97;5093075;28;20504;-73
2023/03/25 10:38:53;;;;;;;6.22;2.90;;;;;;;21.72;44.60;92578.44;5093118;28;20040;-73
2023/03/25 10:41:26;;;;;;;5.20;2.78;;;;;;;20.97;43.11;92583.84;5093181;28;20067;-73
2023/03/25 10:43:53;;;;;;;5.78;2.58;;;;;;;21.31;43.62;92589.72;5093344;28;20509;-73
2023/03/25 10:46:28;;;;;;;5.25;2.88;;;;;;;20.42;45.27;92585.28;5092579;28;20097;-74
2023/03/25 10:48:55;;;;;;;7.22;3.25;;;;;;;20.07;45.79;92580.34;5092629;28;20135;-73
2023/03/25 10:51:27;;;;;;;4.05;2.30;;;;;;;20.32;47.38;92575.78;5092625;28;20052;-74
2023/03/25 10:53:54;;;;;;;10.93;3.38;;;;;;;20.82;47.94;92567.38;5093038;28;20382;-74
2023/03/25 10:56:26;;;;;;;5.40;2.80;;;;;;;20.71;45.39;92566.00;5092768;28;20040;-74
2023/03/25 10:58:55;;;;;;;6.45;3.15;;;;;;;20.22;44.78;92570.75;5092992;28;20044;-74
2023/03/25 11:01:31;;;;;;;4.25;2.63;;;;;;;20.50;45.20;92566.34;5092856;28;20453;-74
2023/03/25 11:04:00;;;;;;;6.13;3.40;;;;;;;20.30;44.31;92562.25;5092478;28;20051;-74
2023/03/25 11:06:30;;;;;;;6.03;2.80;;;;;;;19.88;44.44;92549.84;5092716;28;20438;-73
2023/03/25 11:09:12;;;;;;;4.88;2.33;;;;;;;19.71;44.40;92567.78;5091465;28;20118;-73
2023/03/25 11:11:41;;;;;;;9.23;2.85;;;;;;;19.66;45.96;92560.84;5083014;28;20076;-73
2023/03/25 11:14:10;;;;;;;5.15;2.83;;;;;;;19.54;45.97;92542.25;5080008;28;20051;-73
2023/03/25 11:16:42;;;;;;;8.68;3.63;;;;;;;19.72;46.28;92551.13;5090851;28;20052;-73
2023/03/25 11:19:18;;;;;;;13.43;3.22;;;;;;;19.42;44.11;92546.06;5092327;28;20089;-73
2023/03/25 11:21:46;;;;;;;;;;;;;;;19.55;45.32;92552.41;5092806;28;20109;-73
2023/03/25 11:24:17;;;;;;;10.90;3.05;;;;;;;19.66;44.98;92550.41;5091973;28;19920;-73
2023/03/25 11:26:48;;;;;;;10.07;3.85;;;;;;;19.38;43.54;92541.69;5092159;28;20101;-73
2023/03/25 11:29:18;;;;;;;8.52;3.42;;;;;;;19.66;44.75;92547.81;5091948;28;20074;-73
2023/03/25 11:31:55;;;;;;;9.02;2.63;;;;;;;20.23;44.66;92530.56;5092029;28;20114;-74
2023/03/25 11:34:23;;;;;;;9.27;2.95;;;;;;;20.64;42.66;92535.06;5091829;28;20172;-73